• Join FlightAware (Why Join?)
  • Login
  • US Flag 
06:51AM EDT


 

Airport Tracker/Info


-or-


 

Live Flight TrackerFlight Track Log ✈ SWA2150 ✈ 27-Sep-2013 ✈ KBWI - KTPA

Flight Track Log - Related Links

Times and Time Zones

All times are in EDT time to prevent confusion due to time zone crossing. See the SWA2150 flight status page for this flight to view local times or setup timezone preferences in your user account.

Time Position Orientation Groundspeed Altitude Reporting Facility
EDT Latitude Longitude Course Direction KTS MPH feet Rate Location/Type
09:03PM 39.1333 -76.6667 303° West 201 231 2,200  Level Potomac TRACON
09:04PM 39.1667 -76.7333 303° West 233 268 4,800 2,400 Climbing Potomac TRACON
09:05PM 39.1833 -76.8167 284° West 266 306 7,100 2,640 Climbing Potomac TRACON
09:07PM 39.2114 -77.0058 281° West 302 348 12,800 2,760 Climbing Washington Center
09:08PM 39.2036 -77.1369 266° West 335 386 15,300 2,520 Climbing Washington Center
09:09PM 39.1231 -77.2317 222° Southwest 347 399 18,000 2,460 Climbing Washington Center
09:10PM 39.0133 -77.3253 214° Southwest 380 437 20,200 2,400 Climbing Washington Center
09:11PM 38.9019 -77.4003 208° Southwest 425 489 22,800 2,280 Climbing Washington Center
09:12PM 38.7942 -77.4908 213° Southwest 452 520 24,800 1,920 Climbing Washington Center
09:13PM 38.6864 -77.5836 214° Southwest 468 539 26,800 1,140 Climbing Washington Center
09:14PM 38.5742 -77.6817 214° Southwest 478 550 27,100 1,080 Climbing Washington Center
09:15PM 38.4600 -77.7764 213° Southwest 484 557 29,000 1,620 Climbing Washington Center
09:16PM 38.3475 -77.8739 214° Southwest 495 570 30,400 1,260 Climbing Washington Center
09:17PM 38.2247 -77.9758 213° Southwest 506 582 31,600 1,440 Climbing Washington Center
09:18PM 38.1036 -78.0803 214° Southwest 522 601 33,400 1,200 Climbing Washington Center
09:19PM 37.9975 -78.1661 213° Southwest 522 601 34,000 300 Climbing Washington Center
09:20PM 37.8889 -78.2756 219° Southwest 509 586 34,000 660 Level Washington Center
09:21PM 37.7781 -78.3819 217° Southwest 509 586 35,400 1,440 Climbing Washington Center
09:22PM 37.6564 -78.4956 216° Southwest 509 586 37,000 1,140 Climbing Washington Center
09:23PM 37.5453 -78.6014 217° Southwest 509 586 37,800 480 Climbing Washington Center
09:24PM 37.4319 -78.7067 216° Southwest 509 586 38,000 60 Climbing Washington Center
09:25PM 37.3064 -78.8008 211° Southwest 514 592 38,000  Level Washington Center
09:26PM 37.1939 -78.8744 208° Southwest 520 598 38,000  Level Washington Center
09:27PM 37.0706 -78.9603 209° Southwest 515 593 38,000  Level Washington Center
09:28PM 36.9450 -79.0431 208° Southwest 515 593 38,000  Level Washington Center
09:29PM 36.8217 -79.1258 208° Southwest 515 593 38,000  Level Washington Center
09:30PM 36.6981 -79.2108 209° Southwest 515 593 38,000  Level Washington Center
09:31PM 36.4900 -79.3494 208° Southwest 503 579 38,000  Level Atlanta Center
09:32PM 36.3661 -79.4314 208° Southwest 503 579 38,000  Level Atlanta Center
09:33PM 36.2419 -79.5156 209° Southwest 508 585 38,000  Level Atlanta Center
09:34PM 36.1156 -79.5972 208° Southwest 508 585 38,000  Level Atlanta Center
09:35PM 35.9769 -79.6894 208° Southwest 508 585 38,000  Level Atlanta Center
09:36PM 35.8506 -79.7731 208° Southwest 508 585 38,000  Level Atlanta Center
09:37PM 35.7264 -79.8564 209° Southwest 508 585 38,000  Level Atlanta Center
09:38PM 35.6122 -79.9364 210° Southwest 514 592 38,000  Level Atlanta Center
09:39PM 35.4733 -80.0247 207° Southwest 514 592 38,000  Level Atlanta Center
09:41PM 35.2750 -80.1519 208° Southwest 498 573 38,000  Level Jacksonville Center
09:42PM 35.1475 -80.2322 207° Southwest 505 581 38,000  Level Jacksonville Center
09:43PM 35.0242 -80.3122 208° Southwest 505 581 38,000  Level Jacksonville Center
09:44PM 34.8986 -80.3944 208° Southwest 511 588 38,000  Level Jacksonville Center
09:45PM 34.7936 -80.4708 211° Southwest 510 587 38,000  Level Jacksonville Center
09:46PM 34.6594 -80.5375 202° Southwest 504 580 38,000  Level Jacksonville Center
09:47PM 34.5292 -80.6042 203° Southwest 509 586 38,000  Level Jacksonville Center
09:48PM 34.3989 -80.6706 203° Southwest 514 592 38,000  Level Jacksonville Center
09:49PM 34.2667 -80.7367 202° Southwest 512 589 38,000  Level Jacksonville Center
09:50PM 34.1361 -80.8028 203° Southwest 512 589 38,000  Level Jacksonville Center
09:51PM 34.0017 -80.8686 202° Southwest 512 589 38,000  Level Jacksonville Center
09:52PM 33.8714 -80.9367 203° Southwest 512 589 38,000  Level Jacksonville Center
09:53PM 33.7367 -81.0019 202° Southwest 518 596 38,000  Level Jacksonville Center
09:54PM 33.6042 -81.0697 203° Southwest 518 596 38,000  Level Jacksonville Center
09:55PM 33.4736 -81.1347 203° Southwest 518 596 38,000  Level Jacksonville Center
09:56PM 33.3389 -81.1994 202° Southwest 513 590 38,000  Level Jacksonville Center
09:57PM 33.2081 -81.2664 203° Southwest 513 590 38,000  Level Jacksonville Center
09:58PM 33.0775 -81.3308 202° Southwest 513 590 38,000  Level Jacksonville Center
09:59PM 32.9403 -81.3828 198° South 513 590 38,000  Level Jacksonville Center
10:00PM 32.8031 -81.4219 193° South 513 590 38,000  Level Jacksonville Center
10:01PM 32.6511 -81.4689 195° South 506 582 38,000  Level Jacksonville Center
10:02PM 32.5264 -81.5053 194° South 513 590 38,000  Level Jacksonville Center
10:03PM 32.3767 -81.5519 195° South 508 585 38,000  Level Jacksonville Center
10:04PM 32.2372 -81.5933 194° South 508 585 38,000  Level Jacksonville Center
10:05PM 32.1142 -81.6294 194° South 508 585 38,000  Level Jacksonville Center
10:06PM 31.9622 -81.6731 194° South 509 586 38,000  Level Jacksonville Center
10:07PM 31.8375 -81.7114 195° South 514 592 38,000  Level Jacksonville Center
10:08PM 31.6875 -81.7547 194° South 508 585 38,000  Level Jacksonville Center
10:09PM 31.5481 -81.7931 193° South 518 596 38,000  Level Jacksonville Center
10:10PM 31.4250 -81.8311 195° South 512 589 38,000  Level Jacksonville Center
10:11PM 31.2897 -81.8714 194° South 507 583 38,000  Level Jacksonville Center
10:12PM 31.1522 -81.9142 195° South 507 583 38,000  Level Jacksonville Center
10:13PM 31.0147 -81.9519 193° South 507 583 38,000  Level Jacksonville Center
10:14PM 30.8772 -81.9944 195° South 507 583 38,000  Level Jacksonville Center
10:15PM 30.7417 -82.0322 193° South 507 583 38,000  Level Jacksonville Center
10:16PM 30.5897 -82.0744 193° South 507 583 38,000  Level Jacksonville Center
10:17PM 30.4686 -82.1069 193° South 507 583 38,000  Level Jacksonville Center
10:18PM 30.3292 -82.1442 193° South 507 583 38,000  Level Jacksonville Center
10:19PM 30.1914 -82.1836 194° South 507 583 38,000  Level Jacksonville Center
10:20PM 30.0539 -82.2256 195° South 507 583 38,000 -660 Level Jacksonville Center
10:21PM 29.9039 -82.2719 195° South 512 589 36,700 -2,100 Descending Jacksonville Center
10:22PM 29.7683 -82.3111 194° South 512 589 33,800 -3,000 Descending Jacksonville Center
10:23PM 29.6306 -82.3431 191° South 512 589 30,700 -3,060 Descending Jacksonville Center
10:24PM 29.4950 -82.3486 182° South 506 582 27,700 -2,400 Descending Jacksonville Center
10:25PM 29.3614 -82.3350 175° South 494 568 25,900 -2,280 Descending Jacksonville Center
10:26PM 29.2339 -82.3192 174° South 489 563 23,200 -2,640 Descending Jacksonville Center
10:27PM 29.1128 -82.3031 173° South 470 541 20,700 -2,400 Descending Jacksonville Center
10:28PM 28.9917 -82.2897 174° South 455 524 18,400 -2,400 Descending Jacksonville Center
10:29PM 28.8747 -82.2736 173° South 440 506 15,900 -1,980 Descending Jacksonville Center
10:31PM 28.6500 -82.2667 178° South 383 441 12,500 -1,500 Descending Tampa TRACON
10:32PM 28.5333 -82.2667 180° South 399 459 11,500 -780 Descending Tampa TRACON
10:33PM 28.4333 -82.3000 196° South 391 450 11,000 -300 Descending Tampa TRACON
10:34PM 28.3333 -82.3167 188° South 336 387 11,000 -180 Level Tampa TRACON
10:35PM 28.2500 -82.3500 199° South 285 328 10,700 -1,020 Descending Tampa TRACON
10:36PM 28.1833 -82.3667 192° South 270 311 9,000 -1,800 Descending Tampa TRACON
10:37PM 28.1167 -82.3833 192° South 265 305 7,200 -1,800 Descending Tampa TRACON
10:38PM 28.0333 -82.4000 190° South 264 304 5,400 -1,080 Descending Tampa TRACON
10:39PM 27.9667 -82.4167 192° South 236 272 5,100 -180 Descending Tampa TRACON
10:40PM 27.9000 -82.4167 180° South 239 275 5,100 -60 Level Tampa TRACON
10:41PM 27.8333 -82.4167 180° South 237 273 5,000 -600 Descending Tampa TRACON
10:42PM 27.7667 -82.4333 192° South 247 284 4,000 -540 Descending Tampa TRACON
10:43PM 27.7667 -82.5000 270° West 245 282 4,000 -300 Level Tampa TRACON
10:44PM 27.8167 -82.5333 329° Northwest 181 208 3,500 -840 Descending Tampa TRACON
10:45PM 27.8667 -82.5333 360° North 181 208 2,400 -1,080 Descending Tampa TRACON
10:46PM 27.9167 -82.5333 360° North 166 191 1,400 -960 Descending Tampa TRACON
10:47PM 27.9500 -82.5333 360° North 128 147 500 -900 Descending Tampa TRACON